Time;durP1;ratioP1;P1;durP2;ratioP2;P2;SDS_P1;SDS_P2;PMS_P1;PMS_P2;Temp;Humidity;BMP_temperature;BMP_pressure;BME280_temperature;BME280_humidity;BME280_pressure;Samples;Min_cycle;Max_cycle;Signal;HPM_P1;HPM_P2
2023/08/28 00:00:40;;;;;;;5.10;4.10;;;;;;;-147.95;100.00;58458.38;5080629;28;20528;-83
2023/08/28 00:03:05;;;;;;;4.25;3.90;;;;;;;-147.95;100.00;58458.38;5065550;28;21679;-83
2023/08/28 00:05:32;;;;;;;4.38;3.97;;;;;;;-147.95;100.00;58458.38;5066581;28;20577;-84
2023/08/28 00:07:58;;;;;;;5.97;3.53;;;;;;;-147.95;100.00;58458.38;5087234;28;20062;-83
2023/08/28 00:10:24;;;;;;;5.18;4.30;;;;;;;-147.95;100.00;58458.38;5085337;28;20051;-84
2023/08/28 00:12:50;;;;;;;8.02;4.10;;;;;;;-147.95;100.00;58458.38;5081696;28;20040;-83
2023/08/28 00:15:18;;;;;;;8.15;4.28;;;;;;;-147.95;100.00;58458.38;5086018;28;20057;-83
2023/08/28 00:17:43;;;;;;;5.93;3.75;;;;;;;-147.95;100.00;58458.38;5071241;28;20032;-83
2023/08/28 00:20:09;;;;;;;5.25;3.75;;;;;;;-147.95;100.00;58458.38;5088840;28;20535;-83
2023/08/28 00:22:38;;;;;;;4.40;3.55;;;;;;;-147.95;100.00;58458.38;5091907;28;20055;-83
2023/08/28 00:25:07;;;;;;;6.65;3.42;;;;;;;-147.95;100.00;58458.38;5090942;28;20044;-83
2023/08/28 00:27:33;;;;;;;4.60;3.63;;;;;;;-147.95;100.00;58458.38;5090594;28;20066;-84
2023/08/28 00:29:58;;;;;;;6.00;3.80;;;;;;;-147.95;100.00;58458.38;5087137;28;20051;-84
2023/08/28 00:32:25;;;;;;;5.57;3.72;;;;;;;-147.95;100.00;58458.38;5087572;28;20070;-83
2023/08/28 00:34:51;;;;;;;4.57;3.65;;;;;;;-147.95;100.00;58458.38;5085223;28;20643;-84
2023/08/28 00:37:16;;;;;;;5.85;3.75;;;;;;;-147.95;100.00;58458.38;5085210;28;20526;-83
2023/08/28 00:39:42;;;;;;;8.10;4.63;;;;;;;-147.95;100.00;58458.38;5086517;28;20066;-83
2023/08/28 00:42:07;;;;;;;4.43;4.03;;;;;;;-147.95;100.00;58458.38;5083516;28;20517;-84
2023/08/28 00:44:32;;;;;;;5.97;3.65;;;;;;;-147.95;100.00;58458.38;5084526;28;20406;-84
2023/08/28 00:46:59;;;;;;;5.88;4.00;;;;;;;-147.95;100.00;58458.38;5084373;28;20490;-84
2023/08/28 00:49:24;;;;;;;7.78;4.25;;;;;;;-147.95;100.00;58458.38;5084624;28;20102;-83
2023/08/28 00:51:52;;;;;;;5.20;4.20;;;;;;;-147.95;100.00;58458.38;5071632;28;20115;-83
2023/08/28 00:54:17;;;;;;;6.00;4.38;;;;;;;-147.95;100.00;58458.38;5084904;28;20042;-83
2023/08/28 00:56:43;;;;;;;6.05;3.72;;;;;;;-147.95;100.00;58458.38;5070652;28;20056;-83
2023/08/28 00:59:09;;;;;;;9.43;4.82;;;;;;;-147.95;100.00;58458.38;5089155;28;20478;-83
2023/08/28 01:01:34;;;;;;;6.55;3.92;;;;;;;-147.95;100.00;58458.38;5090993;28;21202;-83
2023/08/28 01:04:00;;;;;;;4.47;3.60;;;;;;;-147.95;100.00;58458.38;5085444;28;20024;-83
2023/08/28 01:06:53;;;;;;;7.00;4.50;;;;;;;-147.95;100.00;58458.38;5087285;28;20028;-83
2023/08/28 01:09:58;;;;;;;10.85;4.28;;;;;;;-147.95;100.00;58458.38;5081774;28;20439;-83
2023/08/28 01:12:51;;;;;;;5.10;3.83;;;;;;;-147.95;100.00;58458.38;5072380;28;20052;-83
2023/08/28 01:15:20;;;;;;;7.00;4.25;;;;;;;-147.95;100.00;58458.38;5086479;28;20020;-83
2023/08/28 01:17:54;;;;;;;4.97;4.20;;;;;;;-147.95;100.00;58458.38;5090164;28;20016;-83
2023/08/28 01:20:21;;;;;;;5.03;4.50;;;;;;;-147.95;100.00;58458.38;5090238;28;20024;-83
2023/08/28 01:23:04;;;;;;;6.70;4.78;;;;;;;-147.95;100.00;58458.38;5090495;28;20036;-83
2023/08/28 01:25:31;;;;;;;;;;;;;;;-147.95;100.00;58458.38;5089772;28;20366;-83
2023/08/28 01:27:58;;;;;;;9.45;4.53;;;;;;;-147.95;100.00;58458.38;5072556;28;19935;-83
2023/08/28 01:30:23;;;;;;;10.57;4.80;;;;;;;-147.95;100.00;58458.38;5090834;28;20470;-84
2023/08/28 01:32:48;;;;;;;8.40;4.78;;;;;;;-147.95;100.00;58458.38;5051061;28;20032;-83
2023/08/28 01:35:24;;;;;;;11.23;4.80;;;;;;;-147.95;100.00;58458.38;5089956;28;20024;-83
2023/08/28 01:38:27;;;;;;;6.25;4.55;;;;;;;-147.95;100.00;58458.38;5089693;28;20059;-83
2023/08/28 01:41:03;;;;;;;6.85;5.38;;;;;;;-147.95;100.00;58458.38;5089745;28;20029;-83
2023/08/28 01:43:35;;;;;;;6.78;4.97;;;;;;;-147.95;100.00;58458.38;5086129;28;20028;-83
2023/08/28 01:46:02;;;;;;;7.57;4.73;;;;;;;-147.95;100.00;58458.38;5089039;28;20016;-83
2023/08/28 01:48:28;;;;;;;7.38;5.05;;;;;;;-147.95;100.00;58458.38;5091154;28;20032;-84
2023/08/28 01:50:54;;;;;;;7.47;5.43;;;;;;;-147.95;100.00;58458.38;5089917;28;20043;-83
2023/08/28 01:53:22;;;;;;;10.30;6.10;;;;;;;-147.95;100.00;58458.38;5088483;28;20024;-83
2023/08/28 01:56:09;;;;;;;10.73;5.80;;;;;;;-147.95;100.00;58458.38;5085117;28;20297;-83
2023/08/28 01:58:43;;;;;;;9.18;5.32;;;;;;;-147.95;100.00;58458.38;5082852;28;20028;-82
2023/08/28 02:01:09;;;;;;;9.98;5.38;;;;;;;-147.95;100.00;58458.38;5081417;28;20081;-84
2023/08/28 02:03:34;;;;;;;9.98;5.70;;;;;;;-147.95;100.00;58458.38;5085314;28;21624;-83
2023/08/28 02:06:00;;;;;;;7.43;5.60;;;;;;;-147.95;100.00;58458.38;5084357;28;20135;-83
2023/08/28 02:08:27;;;;;;;13.20;5.82;;;;;;;-147.95;100.00;58458.38;5083497;28;20064;-83
2023/08/28 02:10:53;;;;;;;9.82;5.70;;;;;;;-147.95;100.00;58458.38;5084341;28;20126;-83
2023/08/28 02:13:18;;;;;;;7.30;5.65;;;;;;;-147.95;100.00;58458.38;5083777;28;20059;-83
2023/08/28 02:15:44;;;;;;;10.75;6.20;;;;;;;-147.95;100.00;58458.38;5085009;28;20120;-83
2023/08/28 02:18:10;;;;;;;10.50;5.70;;;;;;;-147.95;100.00;58458.38;5083594;28;20051;-83
2023/08/28 02:20:36;;;;;;;8.68;5.50;;;;;;;-147.95;100.00;58458.38;5091532;28;20025;-83
2023/08/28 02:23:01;;;;;;;13.95;5.93;;;;;;;-147.95;100.00;58458.38;5069421;28;20077;-84
2023/08/28 02:25:27;;;;;;;8.60;5.43;;;;;;;-147.95;100.00;58458.38;5068598;28;20036;-83
2023/08/28 02:27:53;;;;;;;8.68;6.20;;;;;;;-147.95;100.00;58458.38;5083793;28;20020;-82
2023/08/28 02:30:19;;;;;;;12.50;6.32;;;;;;;-147.95;100.00;58458.38;5083119;28;20032;-83
2023/08/28 02:32:44;;;;;;;8.48;6.57;;;;;;;-147.95;100.00;58458.38;5084102;28;20030;-83
2023/08/28 02:35:11;;;;;;;9.20;6.55;;;;;;;-147.95;100.00;58458.38;5085679;28;20743;-84
2023/08/28 02:37:40;;;;;;;8.77;6.78;;;;;;;-147.95;100.00;58458.38;5070315;28;20072;-83
2023/08/28 02:40:06;;;;;;;8.35;5.90;;;;;;;-147.95;100.00;58458.38;5082202;28;20030;-83
2023/08/28 02:42:33;;;;;;;10.27;6.82;;;;;;;-147.95;100.00;58458.38;5085568;28;20032;-84
2023/08/28 02:44:58;;;;;;;10.15;6.75;;;;;;;-147.95;100.00;58458.38;5074855;28;20115;-83
2023/08/28 02:47:25;;;;;;;7.68;6.43;;;;;;;-147.95;100.00;58458.38;5084508;28;20122;-82
2023/08/28 02:49:51;;;;;;;10.48;7.60;;;;;;;-147.95;100.00;58458.38;5082942;28;20646;-84
2023/08/28 02:52:18;;;;;;;10.40;8.27;;;;;;;-147.95;100.00;58458.38;5068417;28;20089;-84
2023/08/28 02:54:43;;;;;;;11.23;7.40;;;;;;;-147.95;100.00;58458.38;5083925;28;20039;-83
2023/08/28 02:57:09;;;;;;;8.30;7.03;;;;;;;-147.95;100.00;58458.38;5082660;28;20403;-84
2023/08/28 02:59:34;;;;;;;13.38;7.47;;;;;;;-147.95;100.00;58458.38;5067996;28;20402;-84
2023/08/28 03:01:59;;;;;;;12.27;7.38;;;;;;;-147.95;100.00;58458.38;5069383;28;20071;-83
2023/08/28 03:04:26;;;;;;;14.38;7.93;;;;;;;-147.95;100.00;58458.38;5063372;28;20040;-83
2023/08/28 03:06:51;;;;;;;13.18;7.75;;;;;;;-147.95;100.00;58458.38;5056119;28;20567;-83
2023/08/28 03:09:17;;;;;;;15.45;8.73;;;;;;;-147.95;100.00;58458.38;5089695;28;20036;-83
2023/08/28 03:11:42;;;;;;;13.98;8.45;;;;;;;-147.95;100.00;58458.38;5084229;28;20044;-83
2023/08/28 03:14:08;;;;;;;12.27;8.57;;;;;;;-147.95;100.00;58458.38;5067124;28;20035;-83
2023/08/28 03:16:34;;;;;;;13.15;8.25;;;;;;;-147.95;100.00;58458.38;5071228;28;20032;-83
2023/08/28 03:18:59;;;;;;;10.35;8.20;;;;;;;-147.95;100.00;58458.38;5081854;28;20032;-83
2023/08/28 03:21:24;;;;;;;14.02;7.80;;;;;;;-147.95;100.00;58458.38;5081419;28;20024;-83
2023/08/28 03:23:51;;;;;;;11.52;7.93;;;;;;;-147.95;100.00;58458.38;5087758;28;20046;-83
2023/08/28 03:26:16;;;;;;;10.63;8.18;;;;;;;-147.95;100.00;58458.38;5075868;28;20024;-84
2023/08/28 03:28:41;;;;;;;15.77;9.00;;;;;;;-147.95;100.00;58458.38;5083060;28;20554;-83
2023/08/28 03:31:07;;;;;;;12.00;8.23;;;;;;;-147.95;100.00;58458.38;5077946;28;20464;-83
2023/08/28 03:33:33;;;;;;;14.73;8.95;;;;;;;-147.95;100.00;58458.38;5086400;28;20515;-83
2023/08/28 03:35:59;;;;;;;14.38;9.05;;;;;;;-147.95;100.00;58458.38;5083099;28;20043;-83
2023/08/28 03:38:25;;;;;;;13.40;8.70;;;;;;;-147.95;100.00;58458.38;5081858;28;20181;-83
2023/08/28 03:40:51;;;;;;;18.35;8.75;;;;;;;-147.95;100.00;58458.38;5084144;28;20429;-83
2023/08/28 03:43:17;;;;;;;14.48;8.43;;;;;;;-147.95;100.00;58458.38;5086648;28;20111;-83
2023/08/28 03:45:42;;;;;;;14.50;8.63;;;;;;;-147.95;100.00;58458.38;5081958;28;20439;-83
2023/08/28 03:48:09;;;;;;;12.15;9.07;;;;;;;-147.95;100.00;58458.38;5067401;28;20036;-84
2023/08/28 03:50:35;;;;;;;14.13;9.25;;;;;;;-147.95;100.00;58458.38;5085532;28;20047;-83
2023/08/28 03:53:01;;;;;;;15.77;9.38;;;;;;;-147.95;100.00;58458.38;5087834;28;20149;-83
2023/08/28 03:55:29;;;;;;;14.05;9.32;;;;;;;-147.95;100.00;58458.38;5084134;28;20127;-83
2023/08/28 03:57:55;;;;;;;16.88;9.52;;;;;;;-147.95;100.00;58458.38;5087358;28;20125;-83
2023/08/28 04:00:21;;;;;;;15.55;9.25;;;;;;;-147.95;100.00;58458.38;5080862;28;20035;-83
2023/08/28 04:02:50;;;;;;;12.90;9.00;;;;;;;-147.95;100.00;58458.38;5085034;28;20040;-84
2023/08/28 04:05:16;;;;;;;11.45;9.07;;;;;;;-147.95;100.00;58458.38;5088678;28;20172;-82
2023/08/28 04:07:43;;;;;;;18.23;9.00;;;;;;;-147.95;100.00;58458.38;5075424;28;20087;-83
2023/08/28 04:10:09;;;;;;;14.63;9.48;;;;;;;-147.95;100.00;58458.38;5082650;28;21292;-82
2023/08/28 04:12:34;;;;;;;13.27;9.43;;;;;;;-147.95;100.00;58458.38;5078092;28;20513;-83
2023/08/28 04:15:00;;;;;;;19.77;9.40;;;;;;;-147.95;100.00;58458.38;5079308;28;20047;-82
2023/08/28 04:17:25;;;;;;;14.40;9.13;;;;;;;-147.95;100.00;58458.38;5082193;28;20032;-83
2023/08/28 04:19:52;;;;;;;14.57;9.63;;;;;;;-147.95;100.00;58458.38;5082019;28;20122;-83
2023/08/28 04:22:21;;;;;;;10.38;8.73;;;;;;;-147.95;100.00;58458.38;5081807;28;20024;-82
2023/08/28 04:24:49;;;;;;;14.95;9.65;;;;;;;-147.95;100.00;58458.38;5083094;28;20036;-82
2023/08/28 04:27:15;;;;;;;12.90;9.15;;;;;;;-147.95;100.00;58458.38;5082770;28;20032;-83
2023/08/28 04:29:40;;;;;;;14.35;8.95;;;;;;;-147.95;100.00;58458.38;5080619;28;20039;-82
2023/08/28 04:32:06;;;;;;;12.93;8.93;;;;;;;-147.95;100.00;58458.38;5082393;28;20032;-81
2023/08/28 04:34:32;;;;;;;18.98;9.77;;;;;;;-147.95;100.00;58458.38;5079240;28;20020;-80
2023/08/28 04:36:57;;;;;;;14.55;9.98;;;;;;;-147.95;100.00;58458.38;5082675;28;20032;-81
2023/08/28 04:39:23;;;;;;;11.68;9.68;;;;;;;-147.95;100.00;58458.38;5082639;28;20028;-81
2023/08/28 04:41:49;;;;;;;15.45;10.07;;;;;;;-147.95;100.00;58458.38;5049910;28;20024;-79
2023/08/28 04:44:14;;;;;;;12.45;9.77;;;;;;;-147.95;100.00;58458.38;5085970;28;20028;-80
2023/08/28 04:46:40;;;;;;;13.95;9.43;;;;;;;-147.95;100.00;58458.38;5081394;28;20032;-80
2023/08/28 04:49:06;;;;;;;13.50;9.75;;;;;;;-147.95;100.00;58458.38;5083818;28;20031;-80
2023/08/28 04:51:31;;;;;;;11.85;9.27;;;;;;;-147.95;100.00;58458.38;5083112;28;20040;-82
2023/08/28 04:53:56;;;;;;;13.40;9.35;;;;;;;-147.95;100.00;58458.38;5067910;28;20043;-83
2023/08/28 04:56:22;;;;;;;12.05;8.90;;;;;;;-147.95;100.00;58458.38;5086731;28;20051;-83
2023/08/28 04:58:47;;;;;;;13.00;9.30;;;;;;;-147.95;100.00;58458.38;5087744;28;20047;-83
2023/08/28 05:01:14;;;;;;;11.18;9.02;;;;;;;-147.95;100.00;58458.38;5067970;28;20443;-83
2023/08/28 05:03:39;;;;;;;14.95;9.35;;;;;;;-147.95;100.00;58458.38;5087562;28;20040;-83
2023/08/28 05:06:05;;;;;;;23.02;10.73;;;;;;;-147.95;100.00;58458.38;5083048;28;20034;-83
2023/08/28 05:08:30;;;;;;;9.98;8.77;;;;;;;-147.95;100.00;58458.38;5085443;28;20063;-83
2023/08/28 05:10:56;;;;;;;15.88;9.45;;;;;;;-147.95;100.00;58458.38;5087426;28;20031;-84
2023/08/28 05:13:22;;;;;;;13.73;9.93;;;;;;;-147.95;100.00;58458.38;5088724;28;20028;-84
2023/08/28 05:15:47;;;;;;;11.23;8.93;;;;;;;-147.95;100.00;58458.38;5089513;28;20024;-84
2023/08/28 05:18:13;;;;;;;15.00;9.75;;;;;;;-147.95;100.00;58458.38;5068452;28;20044;-83
2023/08/28 05:20:39;;;;;;;16.40;9.55;;;;;;;-147.95;100.00;58458.38;5070206;28;20129;-84
2023/08/28 05:23:05;;;;;;;13.05;9.88;;;;;;;-147.95;100.00;58458.38;5069715;28;21231;-84
2023/08/28 05:25:30;;;;;;;13.18;9.55;;;;;;;-147.95;100.00;58458.38;5069437;28;20556;-84
2023/08/28 05:27:56;;;;;;;13.65;10.60;;;;;;;-147.95;100.00;58458.38;5070240;28;20030;-83
2023/08/28 05:30:21;;;;;;;16.38;10.43;;;;;;;-147.95;100.00;58458.38;5067095;28;20028;-84
2023/08/28 05:32:47;;;;;;;12.70;9.60;;;;;;;-147.95;100.00;58458.38;5073417;28;20032;-84
2023/08/28 05:35:12;;;;;;;16.40;10.02;;;;;;;-147.95;100.00;58458.38;5093682;28;20389;-84
2023/08/28 05:37:37;;;;;;;14.50;10.20;;;;;;;-147.95;100.00;58458.38;5070232;28;20498;-84
2023/08/28 05:40:04;;;;;;;14.93;10.30;;;;;;;-147.95;100.00;58458.38;5088424;28;20020;-83
2023/08/28 05:42:30;;;;;;;14.15;10.43;;;;;;;-147.95;100.00;58458.38;5085384;28;20123;-84
2023/08/28 05:44:56;;;;;;;18.98;11.02;;;;;;;-147.95;100.00;58458.38;5084313;28;20016;-84
2023/08/28 05:47:22;;;;;;;17.52;11.30;;;;;;;-147.95;100.00;58458.38;5085328;28;20036;-83
2023/08/28 05:49:47;;;;;;;17.85;11.52;;;;;;;-147.95;100.00;58458.38;5087394;28;20024;-79
2023/08/28 05:52:12;;;;;;;22.90;12.50;;;;;;;-147.95;100.00;58458.38;5075225;28;20059;-79
2023/08/28 05:54:38;;;;;;;18.35;11.52;;;;;;;-147.95;100.00;58458.38;5088959;28;20088;-79
2023/08/28 05:57:03;;;;;;;20.25;11.25;;;;;;;-147.95;100.00;58458.38;5073448;28;20059;-79
2023/08/28 05:59:29;;;;;;;19.23;11.70;;;;;;;-147.95;100.00;58458.38;5071614;28;20123;-79
2023/08/28 06:01:54;;;;;;;18.17;11.93;;;;;;;-147.95;100.00;58458.38;5089688;28;20073;-79
2023/08/28 06:04:20;;;;;;;17.40;11.23;;;;;;;-147.95;100.00;58458.38;5090530;28;20028;-80
2023/08/28 06:06:45;;;;;;;24.13;11.82;;;;;;;-147.95;100.00;58458.38;5080361;28;20044;-79
2023/08/28 06:09:11;;;;;;;19.33;10.52;;;;;;;-147.95;100.00;58458.38;5080981;28;20036;-78
2023/08/28 06:11:36;;;;;;;13.90;9.02;;;;;;;-147.95;100.00;58458.38;5088796;28;20119;-79
2023/08/28 06:14:03;;;;;;;14.77;9.70;;;;;;;-147.95;100.00;58458.38;5056403;28;20479;-78
2023/08/28 06:16:28;;;;;;;12.60;8.43;;;;;;;-147.95;100.00;58458.38;5083643;28;20053;-79
2023/08/28 06:18:54;;;;;;;12.13;8.45;;;;;;;-147.95;100.00;58458.38;5070011;28;20042;-79
2023/08/28 06:21:20;;;;;;;14.07;8.52;;;;;;;-147.95;100.00;58458.38;5088001;28;20486;-79
2023/08/28 06:23:45;;;;;;;10.65;9.25;;;;;;;-147.95;100.00;58458.38;5086634;28;20124;-79
2023/08/28 06:26:12;;;;;;;16.33;9.93;;;;;;;-147.95;100.00;58458.38;5065894;28;20046;-80
2023/08/28 06:28:37;;;;;;;11.88;9.30;;;;;;;-147.95;100.00;58458.38;5062647;28;20025;-81
2023/08/28 06:31:03;;;;;;;13.63;9.52;;;;;;;-147.95;100.00;58458.38;5084347;28;20024;-81
2023/08/28 06:33:29;;;;;;;13.73;8.52;;;;;;;-147.95;100.00;58458.38;5088400;28;20441;-81
2023/08/28 06:35:54;;;;;;;14.43;9.15;;;;;;;-147.95;100.00;58458.38;5083342;28;20031;-80
2023/08/28 06:38:19;;;;;;;11.57;8.25;;;;;;;-147.95;100.00;58458.38;5079888;28;20403;-81
2023/08/28 06:40:52;;;;;;;14.45;7.95;;;;;;;-147.95;100.00;58458.38;5090361;28;20032;-80
2023/08/28 06:43:18;;;;;;;;;;;;;;;-147.95;100.00;58458.38;5084964;28;20047;-80
2023/08/28 06:45:45;;;;;;;14.27;8.45;;;;;;;-147.95;100.00;58458.38;5088573;28;19912;-80
2023/08/28 06:48:11;;;;;;;15.00;8.23;;;;;;;-147.95;100.00;58458.38;5081505;28;20049;-80
2023/08/28 06:50:37;;;;;;;11.35;7.93;;;;;;;-147.95;100.00;58458.38;5091718;28;20040;-81
2023/08/28 06:53:03;;;;;;;16.95;7.93;;;;;;;-147.95;100.00;58458.38;5064589;28;20036;-79
2023/08/28 06:55:28;;;;;;;13.30;8.05;;;;;;;-147.95;100.00;58458.38;5081333;28;20071;-82
2023/08/28 06:57:55;;;;;;;12.90;7.82;;;;;;;-147.95;100.00;58458.38;5071301;28;20040;-76
2023/08/28 07:00:21;;;;;;;10.85;7.97;;;;;;;-147.95;100.00;58458.38;5065713;28;20031;-85
2023/08/28 07:02:47;;;;;;;9.60;7.68;;;;;;;-147.95;100.00;58458.38;5079926;28;20085;-84
2023/08/28 07:05:12;;;;;;;9.63;7.40;;;;;;;-147.95;100.00;58458.38;5085531;28;20456;-84
2023/08/28 07:07:38;;;;;;;10.48;6.95;;;;;;;-147.95;100.00;58458.38;5089835;28;20032;-84
2023/08/28 07:10:07;;;;;;;10.43;7.28;;;;;;;-147.95;100.00;58458.38;5072809;28;20032;-84
2023/08/28 07:12:33;;;;;;;9.70;7.82;;;;;;;-147.95;100.00;58458.38;5072369;28;20505;-84
2023/08/28 07:15:11;;;;;;;9.13;6.88;;;;;;;-147.95;100.00;58458.38;5073913;28;20024;-84
2023/08/28 07:17:37;;;;;;;13.23;7.38;;;;;;;-147.95;100.00;58458.38;5096316;28;20032;-83
2023/08/28 07:20:04;;;;;;;12.60;7.15;;;;;;;-147.95;100.00;58458.38;5088556;28;20032;-84
2023/08/28 07:22:30;;;;;;;11.80;7.85;;;;;;;-147.95;100.00;58458.38;5073973;28;20028;-84
2023/08/28 07:24:56;;;;;;;13.32;7.15;;;;;;;-147.95;100.00;58458.38;5073212;28;20105;-84
2023/08/28 07:27:21;;;;;;;7.55;6.00;;;;;;;-147.95;100.00;58458.38;5091059;28;20039;-84
2023/08/28 07:29:47;;;;;;;9.93;5.80;;;;;;;-147.95;100.00;58458.38;5087845;28;20397;-84
2023/08/28 07:32:14;;;;;;;8.43;5.95;;;;;;;-147.95;100.00;58458.38;5084386;28;20028;-84
2023/08/28 07:34:39;;;;;;;8.77;6.20;;;;;;;-147.95;100.00;58458.38;5083965;28;20097;-83
2023/08/28 07:37:05;;;;;;;8.15;6.00;;;;;;;-147.95;100.00;58458.38;5068251;28;20024;-83
2023/08/28 07:39:31;;;;;;;8.23;6.50;;;;;;;-147.95;100.00;58458.38;5086637;28;20039;-85
2023/08/28 07:41:59;;;;;;;10.38;6.00;;;;;;;-147.95;100.00;58458.38;5090355;28;20016;-85
2023/08/28 07:44:24;;;;;;;12.00;5.93;;;;;;;-147.95;100.00;58458.38;5088920;28;20177;-85
2023/08/28 07:46:50;;;;;;;10.52;5.88;;;;;;;-147.95;100.00;58458.38;5089771;28;20127;-85
2023/08/28 07:49:16;;;;;;;9.73;5.72;;;;;;;-147.95;100.00;58458.38;5089828;28;20031;-85
2023/08/28 07:51:41;;;;;;;5.32;4.82;;;;;;;-147.95;100.00;58458.38;5088629;28;20032;-85
2023/08/28 07:54:11;;;;;;;9.93;6.13;;;;;;;-147.95;100.00;58458.38;5065947;28;20039;-85
2023/08/28 07:56:37;;;;;;;9.85;6.65;;;;;;;-147.95;100.00;58458.38;5091082;28;20044;-85
2023/08/28 07:59:06;;;;;;;8.85;6.32;;;;;;;-147.95;100.00;58458.38;5084136;28;20024;-85
2023/08/28 08:01:32;;;;;;;11.07;6.25;;;;;;;-147.95;100.00;58458.38;5073559;28;20031;-85
2023/08/28 08:03:57;;;;;;;7.75;6.47;;;;;;;-147.95;100.00;58458.38;5090256;28;20646;-85
2023/08/28 08:06:23;;;;;;;10.18;5.93;;;;;;;-147.95;100.00;58458.38;5078158;28;20029;-85
2023/08/28 08:08:49;;;;;;;10.00;6.53;;;;;;;-147.95;100.00;58458.38;5091676;28;20072;-85
2023/08/28 08:11:15;;;;;;;9.98;6.15;;;;;;;-147.95;100.00;58458.38;5089241;28;20032;-79
2023/08/28 08:13:40;;;;;;;9.75;5.20;;;;;;;-147.95;100.00;58458.38;5088749;28;20039;-79
2023/08/28 08:16:06;;;;;;;9.50;5.40;;;;;;;-147.95;100.00;58458.38;5091202;28;20032;-79
2023/08/28 08:18:32;;;;;;;5.78;4.50;;;;;;;-147.95;100.00;58458.38;5089843;28;20035;-79
2023/08/28 08:20:57;;;;;;;6.93;4.38;;;;;;;-147.95;100.00;58458.38;5089117;28;20031;-79
2023/08/28 08:23:23;;;;;;;8.10;4.75;;;;;;;-147.95;100.00;58458.38;5091021;28;20077;-79
2023/08/28 08:25:49;;;;;;;6.57;4.70;;;;;;;-147.95;100.00;58458.38;5089508;28;20023;-79
2023/08/28 08:28:16;;;;;;;7.32;4.00;;;;;;;-147.95;100.00;58458.38;5087916;28;20024;-79
2023/08/28 08:30:41;;;;;;;6.28;3.28;;;;;;;-147.95;100.00;58458.38;5064375;28;20113;-79
2023/08/28 08:33:07;;;;;;;9.63;4.13;;;;;;;-147.95;100.00;58458.38;5069681;28;20475;-79
2023/08/28 08:35:34;;;;;;;7.30;3.72;;;;;;;-147.95;100.00;58458.38;5086045;28;20036;-79
2023/08/28 08:38:00;;;;;;;5.15;3.15;;;;;;;-147.95;100.00;58458.38;5053433;28;20031;-79
2023/08/28 08:40:26;;;;;;;8.48;3.47;;;;;;;-147.95;100.00;58458.38;5090646;28;20021;-79
2023/08/28 08:42:53;;;;;;;7.18;3.35;;;;;;;-147.95;100.00;58458.38;5090044;28;20012;-79
2023/08/28 08:45:21;;;;;;;7.97;3.60;;;;;;;-147.95;100.00;58458.38;5084196;28;20042;-79
2023/08/28 08:47:50;;;;;;;6.95;3.63;;;;;;;-147.95;100.00;58458.38;5090498;28;20031;-79
2023/08/28 08:50:19;;;;;;;5.10;3.63;;;;;;;-147.95;100.00;58458.38;5088958;28;20031;-79
2023/08/28 08:52:47;;;;;;;4.38;2.58;;;;;;;-147.95;100.00;58458.38;5087616;28;20360;-79
2023/08/28 08:55:28;;;;;;;5.68;2.97;;;;;;;-147.95;100.00;58458.38;5082692;28;20013;-79
2023/08/28 08:57:57;;;;;;;6.40;3.30;;;;;;;-147.95;100.00;58458.38;5088206;28;20040;-79
2023/08/28 09:00:24;;;;;;;5.45;3.15;;;;;;;-147.95;100.00;58458.38;5090476;28;20113;-79
2023/08/28 09:02:51;;;;;;;5.68;3.50;;;;;;;-147.95;100.00;58458.38;5090509;28;20540;-79
2023/08/28 09:05:18;;;;;;;4.32;3.20;;;;;;;-147.95;100.00;58458.38;5084650;28;20030;-79
2023/08/28 09:07:45;;;;;;;4.97;2.78;;;;;;;-147.95;100.00;58458.38;5067527;28;20387;-79
2023/08/28 09:10:14;;;;;;;5.63;3.15;;;;;;;-147.95;100.00;58458.38;5083086;28;20474;-80
2023/08/28 09:12:40;;;;;;;4.47;3.08;;;;;;;-147.95;100.00;58458.38;5092492;28;20040;-80
2023/08/28 09:15:06;;;;;;;4.78;3.20;;;;;;;-147.95;100.00;58458.38;5092739;28;20088;-80
2023/08/28 09:17:36;;;;;;;6.30;3.15;;;;;;;-147.95;100.00;58458.38;5092846;28;20127;-80
2023/08/28 09:20:13;;;;;;;3.28;2.90;;;;;;;-147.95;100.00;58458.38;5090456;28;20040;-80
2023/08/28 09:22:43;;;;;;;3.50;2.60;;;;;;;-147.95;100.00;58458.38;5092603;28;20032;-80
2023/08/28 09:25:09;;;;;;;6.82;3.10;;;;;;;-147.95;100.00;58458.38;5093809;28;20036;-80
2023/08/28 09:27:41;;;;;;;4.32;2.75;;;;;;;-147.95;100.00;58458.38;5075651;28;20028;-79
2023/08/28 09:30:08;;;;;;;5.55;2.97;;;;;;;-147.95;100.00;58458.38;5086982;28;20533;-79
2023/08/28 09:32:33;;;;;;;3.58;3.08;;;;;;;-147.95;100.00;58458.38;5093674;28;20024;-79
2023/08/28 09:34:58;;;;;;;5.22;3.13;;;;;;;-147.95;100.00;58458.38;5091673;28;20116;-79
2023/08/28 09:37:26;;;;;;;7.75;3.60;;;;;;;-147.95;100.00;58458.38;5068209;28;20051;-81
2023/08/28 09:39:56;;;;;;;6.80;3.47;;;;;;;-147.95;100.00;58458.38;5090992;28;20442;-79
2023/08/28 09:42:24;;;;;;;5.95;3.92;;;;;;;-147.95;100.00;58458.38;5092686;28;20024;-79
2023/08/28 09:44:51;;;;;;;14.57;4.15;;;;;;;-147.95;100.00;58458.38;5087248;28;20024;-79
2023/08/28 09:47:21;;;;;;;6.57;3.72;;;;;;;-147.95;100.00;58458.38;5078366;28;20028;-79
2023/08/28 09:49:46;;;;;;;5.63;4.30;;;;;;;-147.95;100.00;58458.38;5089839;28;20118;-79
2023/08/28 09:52:12;;;;;;;9.95;4.80;;;;;;;-147.95;100.00;58458.38;5092020;28;20123;-78
2023/08/28 09:54:37;;;;;;;5.75;4.05;;;;;;;-147.95;100.00;58458.38;5091220;28;20376;-79
2023/08/28 09:57:14;;;;;;;9.23;4.38;;;;;;;-147.95;100.00;58458.38;5088992;28;20056;-78
2023/08/28 09:59:40;;;;;;;5.78;3.97;;;;;;;-147.95;100.00;58458.38;5093633;28;20032;-78
2023/08/28 10:02:07;;;;;;;5.85;4.70;;;;;;;-147.95;100.00;58458.38;5088288;28;20103;-78
2023/08/28 10:04:35;;;;;;;8.13;4.00;;;;;;;-147.95;100.00;58458.38;5091543;28;20121;-78
2023/08/28 10:07:04;;;;;;;6.72;3.83;;;;;;;-147.95;100.00;58458.38;5090530;28;20036;-78
2023/08/28 10:09:32;;;;;;;5.10;3.85;;;;;;;-147.95;100.00;58458.38;5081347;28;20024;-79
2023/08/28 10:12:00;;;;;;;6.72;4.13;;;;;;;-147.95;100.00;58458.38;5090978;28;20066;-79
2023/08/28 10:14:28;;;;;;;4.45;3.50;;;;;;;-147.95;100.00;58458.38;5092421;28;20039;-79
2023/08/28 10:17:00;;;;;;;8.07;3.70;;;;;;;-147.95;100.00;58458.38;5057821;28;20092;-79
2023/08/28 10:19:29;;;;;;;5.70;3.50;;;;;;;-147.95;100.00;58458.38;5086512;28;20047;-79
2023/08/28 10:21:54;;;;;;;3.33;2.97;;;;;;;-147.95;100.00;58458.38;5082920;28;20025;-79
2023/08/28 10:24:21;;;;;;;4.45;2.63;;;;;;;-147.95;100.00;58458.38;5090226;28;20071;-79
2023/08/28 10:26:47;;;;;;;4.15;2.70;;;;;;;-147.95;100.00;58458.38;5092301;28;20064;-79
2023/08/28 10:29:15;;;;;;;4.72;2.33;;;;;;;-147.95;100.00;58458.38;5091101;28;20036;-85
2023/08/28 10:31:42;;;;;;;4.00;2.17;;;;;;;-147.95;100.00;58458.38;5090341;28;20020;-84
2023/08/28 10:34:09;;;;;;;3.13;2.72;;;;;;;-147.95;100.00;58458.38;5090022;28;20475;-84
2023/08/28 10:36:36;;;;;;;3.67;2.38;;;;;;;-147.95;100.00;58458.38;5092095;28;20016;-85
2023/08/28 10:39:03;;;;;;;3.58;3.03;;;;;;;-147.95;100.00;58458.38;5090210;28;20104;-85
2023/08/28 10:41:31;;;;;;;4.05;2.90;;;;;;;-147.95;100.00;58458.38;5090182;28;20024;-85
2023/08/28 10:43:59;;;;;;;3.40;3.10;;;;;;;-147.95;100.00;58458.38;5091892;28;20032;-84
2023/08/28 10:46:28;;;;;;;4.63;3.40;;;;;;;-147.95;100.00;58458.38;5091721;28;20524;-84
2023/08/28 10:48:58;;;;;;;4.88;3.63;;;;;;;-147.95;100.00;58458.38;5082214;28;20048;-84
2023/08/28 10:51:36;;;;;;;6.88;4.05;;;;;;;-147.95;100.00;58458.38;5080466;28;20100;-84
2023/08/28 10:54:09;;;;;;;5.03;3.50;;;;;;;-147.95;100.00;58458.38;5082942;28;20086;-84
2023/08/28 10:56:37;;;;;;;4.25;3.33;;;;;;;-147.95;100.00;58458.38;5089178;28;20044;-84
2023/08/28 10:59:23;;;;;;;7.38;3.78;;;;;;;-147.95;100.00;58458.38;5091903;28;20032;-84
2023/08/28 11:01:53;;;;;;;4.00;3.70;;;;;;;-147.95;100.00;58458.38;5076580;28;20024;-84
2023/08/28 11:04:19;;;;;;;7.07;4.35;;;;;;;-147.95;100.00;58458.38;5084995;28;20074;-85